createdAt,value
2019-03-30T00:01:48.267Z,29.92
2019-03-30T00:04:20.904Z,28.12
2019-03-30T00:06:53.344Z,25.40
2019-03-30T00:09:25.511Z,24.87
2019-03-30T00:11:58.019Z,28.12
2019-03-30T00:14:30.319Z,25.45
2019-03-30T00:17:02.777Z,24.98
2019-03-30T00:19:35.321Z,26.02
2019-03-30T00:22:07.607Z,24.85
2019-03-30T00:24:39.759Z,27.90
2019-03-30T00:27:11.605Z,25.23
2019-03-30T00:32:14.713Z,26.97
2019-03-30T00:34:46.532Z,28.02
2019-03-30T00:39:49.087Z,26.87
2019-03-30T00:42:22.214Z,24.27
2019-03-30T00:44:55.551Z,24.77
2019-03-30T00:47:27.390Z,29.52
2019-03-30T00:52:48.587Z,27.62
2019-03-30T00:55:20.907Z,24.02
2019-03-30T00:57:53.264Z,26.05
2019-03-30T01:00:25.640Z,27.30
2019-03-30T01:02:58.417Z,25.08
2019-03-30T01:05:30.930Z,21.93
2019-03-30T01:08:03.240Z,26.02
2019-03-30T01:10:35.171Z,24.43
2019-03-30T01:13:07.201Z,29.27
2019-03-30T01:15:57.727Z,25.75
2019-03-30T01:18:30.004Z,25.88
2019-03-30T01:21:02.034Z,24.07
2019-03-30T01:23:33.901Z,23.20
2019-03-30T01:26:06.530Z,22.62
2019-03-30T01:28:38.376Z,23.57
2019-03-30T01:33:42.012Z,25.37
2019-03-30T01:36:14.106Z,22.10
2019-03-30T01:38:46.461Z,25.15
2019-03-30T01:41:18.212Z,23.10
2019-03-30T01:46:21.236Z,24.75
2019-03-30T01:48:53.039Z,25.30
2019-03-30T01:53:56.036Z,24.90
2019-03-30T01:56:27.845Z,22.50
2019-03-30T02:01:30.339Z,23.67
2019-03-30T02:04:03.055Z,25.15
2019-03-30T02:06:35.310Z,25.05
2019-03-30T02:09:07.772Z,24.15
2019-03-30T02:11:39.637Z,25.65
2019-03-30T02:16:42.011Z,22.75
2019-03-30T02:21:44.660Z,22.13
2019-03-30T02:24:16.919Z,21.75
2019-03-30T02:26:48.835Z,21.52
2019-03-30T02:31:52.139Z,22.27
2019-03-30T02:34:24.073Z,22.45
2019-03-30T02:36:56.697Z,24.65
2019-03-30T02:39:28.806Z,22.35
2019-03-30T02:42:01.574Z,21.25
2019-03-30T02:44:34.569Z,22.90
2019-03-30T02:47:06.646Z,21.82
2019-03-30T02:49:39.027Z,22.70
2019-03-30T02:52:12.345Z,21.10
2019-03-30T02:54:44.251Z,22.42
2019-03-30T02:57:16.464Z,21.15
2019-03-30T02:59:48.450Z,25.68
2019-03-30T03:02:20.890Z,21.00
2019-03-30T03:04:52.831Z,20.68
2019-03-30T03:09:55.106Z,21.68
2019-03-30T03:12:26.925Z,21.65
2019-03-30T03:17:54.531Z,20.97
2019-03-30T03:20:26.699Z,22.45
2019-03-30T03:22:58.479Z,20.77
2019-03-30T03:28:19.652Z,22.05
2019-03-30T03:30:51.852Z,20.92
2019-03-30T03:33:24.198Z,26.15
2019-03-30T03:35:56.402Z,21.05
2019-03-30T03:38:28.241Z,21.87
2019-03-30T03:43:33.471Z,22.55
2019-03-30T03:46:05.875Z,20.97
2019-03-30T03:48:38.734Z,19.25
2019-03-30T03:53:42.679Z,19.95
2019-03-30T03:56:16.033Z,22.73
2019-03-30T03:58:49.271Z,20.55
2019-03-30T04:01:23.023Z,21.10
2019-03-30T04:03:56.270Z,19.50
2019-03-30T04:06:31.133Z,20.97
2019-03-30T04:09:06.066Z,21.15
2019-03-30T04:11:40.634Z,22.45
2019-03-30T04:14:14.019Z,21.90
2019-03-30T04:16:46.194Z,23.85
2019-03-30T04:19:18.032Z,22.07
2019-03-30T04:24:20.139Z,18.87
2019-03-30T04:26:52.335Z,19.95
2019-03-30T04:29:25.068Z,19.55
2019-03-30T04:34:27.539Z,19.20
2019-03-30T04:36:59.443Z,19.85
2019-03-30T04:39:31.547Z,21.30
2019-03-30T04:42:03.416Z,19.57
2019-03-30T04:44:36.293Z,20.55
2019-03-30T04:47:08.224Z,18.73
2019-03-30T04:49:40.427Z,21.12
2019-03-30T04:52:12.255Z,22.80
2019-03-30T04:54:44.066Z,21.57
2019-03-30T04:57:16.120Z,21.12
2019-03-30T04:59:48.182Z,20.02
2019-03-30T05:02:20.512Z,23.12
2019-03-30T05:04:52.346Z,22.52
2019-03-30T05:07:25.138Z,20.92
2019-03-30T05:09:57.395Z,23.35
2019-03-30T05:12:29.250Z,18.77
2019-03-30T05:15:01.369Z,19.27
2019-03-30T05:17:46.838Z,18.77
2019-03-30T05:20:08.019Z,18.05
2019-03-30T05:22:40.420Z,21.27
2019-03-30T05:25:12.611Z,19.62
2019-03-30T05:27:44.747Z,20.77
2019-03-30T05:30:17.039Z,19.85
2019-03-30T05:32:49.849Z,24.85
2019-03-30T05:37:52.386Z,18.75
2019-03-30T05:40:25.308Z,19.75
2019-03-30T05:42:57.749Z,20.88
2019-03-30T05:45:30.562Z,18.87
2019-03-30T05:50:32.660Z,16.82
2019-03-30T05:55:35.752Z,19.02
2019-03-30T05:58:08.218Z,16.87
2019-03-30T06:00:40.905Z,19.37
2019-03-30T06:03:13.491Z,17.48
2019-03-30T06:05:45.774Z,17.45
2019-03-30T06:08:17.921Z,16.60
2019-03-30T06:10:49.745Z,18.02
2019-03-30T06:15:53.899Z,17.60
2019-03-30T06:18:26.255Z,18.07
2019-03-30T06:20:58.956Z,14.75
2019-03-30T06:23:30.815Z,16.35
2019-03-30T06:28:34.005Z,16.07
2019-03-30T06:31:05.939Z,14.28
2019-03-30T06:33:37.769Z,15.05
2019-03-30T06:36:09.935Z,14.75
2019-03-30T06:38:41.758Z,14.95
2019-03-30T06:41:15.369Z,14.33
2019-03-30T06:43:47.982Z,15.55
2019-03-30T06:46:20.051Z,13.05
2019-03-30T06:48:51.876Z,12.30
2019-03-30T06:51:24.993Z,14.13
2019-03-30T06:53:56.727Z,13.58
2019-03-30T06:59:00.599Z,10.43
2019-03-30T07:01:33.242Z,13.25
2019-03-30T07:04:05.111Z,14.10
2019-03-30T07:09:08.410Z,12.33
2019-03-30T07:11:44.899Z,10.90
2019-03-30T07:14:17.494Z,13.43
2019-03-30T07:16:51.504Z,12.80
2019-03-30T07:19:26.640Z,10.53
2019-03-30T07:21:58.523Z,13.10
2019-03-30T07:24:30.640Z,13.45
2019-03-30T07:27:03.399Z,13.13
2019-03-30T07:29:35.842Z,12.23
2019-03-30T07:32:08.363Z,12.95
2019-03-30T07:34:42.118Z,9.88
2019-03-30T07:37:14.204Z,10.32
2019-03-30T07:39:45.964Z,13.03
2019-03-30T07:44:48.050Z,11.93
2019-03-30T07:49:50.955Z,10.68
2019-03-30T07:54:53.463Z,10.93
2019-03-30T07:59:55.773Z,14.75
2019-03-30T08:04:57.757Z,14.60
2019-03-30T08:10:00.884Z,11.75
2019-03-30T08:12:33.805Z,13.00
2019-03-30T08:17:36.384Z,13.35
2019-03-30T08:22:40.713Z,12.85
2019-03-30T08:27:43.179Z,14.53
2019-03-30T08:30:15.149Z,12.43
2019-03-30T08:32:47.474Z,12.45
2019-03-30T08:35:19.584Z,12.95
2019-03-30T08:37:51.790Z,15.13
2019-03-30T08:40:23.632Z,14.35
2019-03-30T08:45:26.617Z,13.35
2019-03-30T08:50:28.953Z,15.00
2019-03-30T08:53:00.705Z,13.03
2019-03-30T08:58:04.031Z,16.35
2019-03-30T09:00:40.732Z,14.75
2019-03-30T09:03:12.651Z,14.83
2019-03-30T09:05:44.772Z,12.95
2019-03-30T09:08:16.547Z,15.68
2019-03-30T09:13:19.050Z,12.35
2019-03-30T09:15:51.078Z,13.68
2019-03-30T09:18:24.227Z,13.15
2019-03-30T09:20:56.054Z,14.87
2019-03-30T09:25:58.310Z,15.55
2019-03-30T09:28:30.231Z,16.70
2019-03-30T09:33:32.683Z,14.73
2019-03-30T09:38:37.309Z,14.40
2019-03-30T09:41:09.913Z,15.38
2019-03-30T09:43:41.706Z,13.28
2019-03-30T09:46:14.158Z,15.38
2019-03-30T09:48:47.727Z,16.62
2019-03-30T09:51:20.359Z,15.25
2019-03-30T09:53:52.431Z,14.63
2019-03-30T09:56:24.200Z,16.70
2019-03-30T10:01:26.648Z,16.17
2019-03-30T10:03:58.735Z,14.30
2019-03-30T10:06:34.572Z,16.42
2019-03-30T10:09:08.075Z,16.77
2019-03-30T10:11:42.933Z,16.95
2019-03-30T10:14:15.673Z,19.98
2019-03-30T10:16:48.815Z,17.85
2019-03-30T10:19:21.827Z,17.62
2019-03-30T10:21:53.542Z,19.55
2019-03-30T10:24:37.536Z,17.40
2019-03-30T10:26:59.619Z,18.42
2019-03-30T10:29:31.416Z,20.82
2019-03-30T10:34:33.599Z,19.37
2019-03-30T10:40:48.656Z,19.15
2019-03-30T10:43:21.108Z,18.20
2019-03-30T10:45:52.884Z,18.23
2019-03-30T10:50:55.409Z,19.42
2019-03-30T10:53:27.194Z,19.82
2019-03-30T10:58:29.802Z,19.35
2019-03-30T11:01:02.046Z,18.82
2019-03-30T11:03:35.456Z,19.15
2019-03-30T11:06:07.625Z,17.55
2019-03-30T11:08:39.524Z,16.95
2019-03-30T11:11:11.286Z,19.80
2019-03-30T11:16:14.077Z,19.67
2019-03-30T11:18:46.343Z,24.15
2019-03-30T11:21:18.761Z,20.57
2019-03-30T11:23:50.953Z,19.57
2019-03-30T11:26:23.706Z,20.70
2019-03-30T11:28:55.579Z,16.70
2019-03-30T11:33:57.562Z,19.75
2019-03-30T11:39:00.260Z,19.80
2019-03-30T11:41:32.290Z,16.35
2019-03-30T11:44:04.452Z,17.30
2019-03-30T11:46:36.905Z,21.73
2019-03-30T11:49:09.048Z,19.87
2019-03-30T11:51:41.176Z,20.00
2019-03-30T11:54:13.200Z,19.48
2019-03-30T11:56:45.258Z,18.98
2019-03-30T11:59:17.860Z,19.48
2019-03-30T12:01:49.988Z,17.77
2019-03-30T12:04:22.293Z,19.07
2019-03-30T12:06:54.139Z,19.45
2019-03-30T12:11:56.915Z,20.00
2019-03-30T12:14:29.107Z,17.62
2019-03-30T12:17:01.195Z,21.27
2019-03-30T12:19:33.054Z,20.68
2019-03-30T12:24:35.532Z,19.70
2019-03-30T12:27:08.244Z,21.12
2019-03-30T12:29:40.398Z,18.10
2019-03-30T12:32:12.819Z,17.62
2019-03-30T12:34:45.073Z,18.77
2019-03-30T12:37:18.004Z,19.95
2019-03-30T12:39:50.039Z,18.17
2019-03-30T12:42:24.318Z,18.23
2019-03-30T12:44:56.129Z,17.55
2019-03-30T12:49:59.790Z,16.82
2019-03-30T12:52:31.921Z,18.30
2019-03-30T12:55:03.781Z,17.32
2019-03-30T13:00:07.172Z,15.85
2019-03-30T13:02:39.774Z,17.73
2019-03-30T13:05:11.689Z,16.50
2019-03-30T13:07:44.063Z,16.52
2019-03-30T13:10:16.312Z,18.30
2019-03-30T13:12:48.462Z,15.40
2019-03-30T13:15:21.732Z,17.27
2019-03-30T13:17:53.759Z,15.45
2019-03-30T13:20:26.962Z,18.05
2019-03-30T13:22:59.495Z,16.60
2019-03-30T13:25:31.285Z,17.20
2019-03-30T13:30:33.401Z,20.15
2019-03-30T13:35:37.531Z,19.57
2019-03-30T13:38:09.702Z,17.70
2019-03-30T13:40:41.952Z,18.25
2019-03-30T13:43:13.721Z,18.20
2019-03-30T13:48:16.236Z,17.80
2019-03-30T13:50:48.321Z,18.55
2019-03-30T13:53:20.649Z,15.53
2019-03-30T13:55:54.057Z,16.00
2019-03-30T13:58:26.174Z,17.25
2019-03-30T14:00:57.946Z,15.15
2019-03-30T14:06:00.310Z,15.30
2019-03-30T14:08:32.533Z,14.07
2019-03-30T14:11:04.748Z,14.68
2019-03-30T14:13:36.895Z,17.17
2019-03-30T14:16:09.952Z,15.95
2019-03-30T14:18:42.066Z,14.83
2019-03-30T14:21:15.156Z,14.58
2019-03-30T14:23:47.427Z,14.63
2019-03-30T14:26:30.646Z,15.72
2019-03-30T14:28:53.783Z,14.40
2019-03-30T14:31:26.003Z,16.55
2019-03-30T14:33:58.235Z,14.90
2019-03-30T14:36:31.224Z,13.32
2019-03-30T14:39:04.037Z,15.53
2019-03-30T14:41:36.921Z,17.10
2019-03-30T14:44:09.460Z,16.55
2019-03-30T14:46:41.430Z,17.00
2019-03-30T14:49:14.116Z,16.87
2019-03-30T14:51:45.895Z,16.27
2019-03-30T14:56:48.252Z,18.85
2019-03-30T14:59:20.081Z,16.65
2019-03-30T15:04:22.495Z,17.35
2019-03-30T15:06:55.546Z,19.32
2019-03-30T15:09:27.760Z,19.07
2019-03-30T15:11:59.641Z,18.65
2019-03-30T15:14:31.788Z,17.50
2019-03-30T15:17:04.187Z,20.68
2019-03-30T15:19:36.687Z,18.87
2019-03-30T15:22:08.976Z,21.52
2019-03-30T15:24:40.803Z,17.98
2019-03-30T15:27:12.640Z,18.48
2019-03-30T15:32:16.870Z,20.77
2019-03-30T15:34:49.522Z,20.27
2019-03-30T15:37:21.735Z,22.10
2019-03-30T15:39:54.298Z,24.43
2019-03-30T15:42:26.123Z,22.98
2019-03-30T15:47:28.555Z,22.52
2019-03-30T15:50:00.455Z,23.52
2019-03-30T15:52:32.361Z,24.07
2019-03-30T15:57:34.816Z,27.82
2019-03-30T16:00:08.911Z,26.45
2019-03-30T16:02:40.715Z,27.87
2019-03-30T16:10:15.276Z,23.70
2019-03-30T16:12:47.770Z,23.92
2019-03-30T16:15:20.359Z,26.10
2019-03-30T16:17:52.623Z,23.30
2019-03-30T16:20:24.485Z,22.50
2019-03-30T16:25:26.714Z,20.27
2019-03-30T16:27:58.591Z,20.50
2019-03-30T16:33:01.016Z,19.90
2019-03-30T16:35:32.852Z,21.60
2019-03-30T16:38:05.702Z,21.05
2019-03-30T16:40:38.383Z,22.02
2019-03-30T16:43:10.364Z,21.77
2019-03-30T16:45:43.260Z,25.43
2019-03-30T16:48:15.732Z,28.75
2019-03-30T16:50:47.789Z,23.80
2019-03-30T16:53:20.137Z,29.60
2019-03-30T16:55:52.184Z,26.80
2019-03-30T16:58:25.515Z,25.55
2019-03-30T17:00:57.358Z,25.10
2019-03-30T17:03:29.530Z,20.97
2019-03-30T17:06:01.654Z,22.13
2019-03-30T17:08:33.858Z,20.92
2019-03-30T17:11:05.833Z,19.95
2019-03-30T17:13:38.037Z,18.98
2019-03-30T17:16:10.168Z,21.82
2019-03-30T17:18:41.921Z,19.42
2019-03-30T17:23:43.969Z,21.05
2019-03-30T17:28:46.322Z,18.12
2019-03-30T17:31:18.447Z,18.80
2019-03-30T17:33:50.503Z,16.75
2019-03-30T17:36:22.664Z,18.87
2019-03-30T17:38:54.880Z,15.75
2019-03-30T17:41:29.383Z,17.60
2019-03-30T17:44:01.464Z,17.80
2019-03-30T17:46:33.230Z,19.77
2019-03-30T17:51:35.386Z,20.82
2019-03-30T17:54:07.798Z,19.32
2019-03-30T17:56:40.278Z,16.60
2019-03-30T17:59:12.102Z,19.62
2019-03-30T18:04:14.646Z,22.13
2019-03-30T18:09:17.747Z,19.57
2019-03-30T18:11:49.953Z,21.07
2019-03-30T18:14:22.069Z,21.40
2019-03-30T18:16:54.913Z,21.48
2019-03-30T18:19:27.417Z,22.17
2019-03-30T18:21:59.330Z,20.32
2019-03-30T18:24:31.258Z,24.65
2019-03-30T18:27:03.391Z,20.88
2019-03-30T18:29:35.705Z,23.92
2019-03-30T18:32:07.809Z,24.40
2019-03-30T18:34:40.985Z,22.98
2019-03-30T18:37:13.874Z,21.50
2019-03-30T18:39:46.167Z,23.18
2019-03-30T18:42:18.052Z,25.88
2019-03-30T18:44:53.418Z,21.37
2019-03-30T18:47:26.055Z,24.82
2019-03-30T18:49:58.100Z,520.85
2019-03-30T18:52:29.986Z,543.90
2019-03-30T18:57:32.693Z,332.30
2019-03-30T19:00:07.078Z,420.68
2019-03-30T19:02:41.699Z,369.23
2019-03-30T19:05:13.893Z,267.10
2019-03-30T19:07:46.619Z,282.05
2019-03-30T19:10:19.115Z,242.95
2019-03-30T19:12:51.659Z,186.92
2019-03-30T19:15:28.867Z,164.32
2019-03-30T19:18:00.887Z,156.60
2019-03-30T19:20:33.570Z,141.35
2019-03-30T19:23:05.878Z,144.45
2019-03-30T19:25:38.410Z,113.92
2019-03-30T19:28:10.570Z,113.92
2019-03-30T19:30:42.817Z,85.60
2019-03-30T19:33:15.508Z,90.65
2019-03-30T19:35:47.734Z,80.87
2019-03-30T19:38:21.195Z,64.85
2019-03-30T19:40:54.094Z,70.28
2019-03-30T19:43:26.877Z,60.78
2019-03-30T19:45:59.646Z,60.23
2019-03-30T19:48:31.856Z,60.92
2019-03-30T19:51:04.681Z,65.55
2019-03-30T19:53:37.590Z,58.08
2019-03-30T19:56:09.900Z,56.33
2019-03-30T19:58:42.286Z,56.30
2019-03-30T20:01:15.013Z,53.17
2019-03-30T20:03:49.042Z,51.25
2019-03-30T20:06:22.901Z,50.28
2019-03-30T20:08:56.578Z,49.55
2019-03-30T20:11:28.705Z,55.98
2019-03-30T20:14:00.858Z,54.98
2019-03-30T20:16:33.159Z,53.65
2019-03-30T20:19:12.667Z,55.92
2019-03-30T20:21:39.906Z,47.65
2019-03-30T20:24:11.994Z,49.10
2019-03-30T20:26:43.834Z,50.17
2019-03-30T20:29:25.187Z,46.65
2019-03-30T20:31:50.548Z,45.17
2019-03-30T20:34:22.966Z,43.85
2019-03-30T20:36:54.866Z,46.85
2019-03-30T20:39:27.460Z,47.67
2019-03-30T20:41:59.624Z,45.58
2019-03-30T20:44:31.786Z,48.60
2019-03-30T20:47:04.236Z,45.48
2019-03-30T20:49:36.643Z,45.00
2019-03-30T20:52:09.856Z,44.75
2019-03-30T20:54:43.024Z,42.03
2019-03-30T20:57:15.144Z,37.42
2019-03-30T20:59:47.050Z,41.05
2019-03-30T21:04:49.482Z,41.80
2019-03-30T21:07:21.376Z,480.45
2019-03-30T21:12:26.149Z,446.57
2019-03-30T21:14:57.955Z,275.48
2019-03-30T21:20:00.877Z,163.57
2019-03-30T21:22:34.991Z,76.53
2019-03-30T21:25:07.804Z,61.92
2019-03-30T21:27:40.096Z,57.55
2019-03-30T21:30:12.995Z,53.70
2019-03-30T21:32:45.107Z,48.55
2019-03-30T21:37:48.521Z,41.90
2019-03-30T21:40:21.621Z,39.20
2019-03-30T21:42:53.798Z,41.20
2019-03-30T21:45:27.722Z,40.35
2019-03-30T21:48:00.058Z,39.92
2019-03-30T21:50:32.336Z,41.53
2019-03-30T21:53:04.954Z,36.45
2019-03-30T21:55:37.194Z,38.35
2019-03-30T21:58:09.557Z,38.28
2019-03-30T22:00:41.780Z,34.08
2019-03-30T22:03:14.800Z,39.05
2019-03-30T22:05:47.718Z,37.08
2019-03-30T22:08:21.819Z,34.45
2019-03-30T22:10:54.876Z,38.92
2019-03-30T22:13:28.796Z,39.75
2019-03-30T22:16:01.198Z,33.73
2019-03-30T22:18:33.639Z,30.85
2019-03-30T22:21:06.340Z,31.23
2019-03-30T22:23:38.599Z,30.17
2019-03-30T22:26:10.743Z,28.62
2019-03-30T22:28:43.067Z,31.80
2019-03-30T22:31:16.733Z,28.57
2019-03-30T22:33:49.317Z,29.87
2019-03-30T22:36:21.381Z,26.30
2019-03-30T22:38:53.575Z,32.08
2019-03-30T22:41:25.435Z,30.02
2019-03-30T22:46:28.213Z,30.60
2019-03-30T22:49:00.487Z,31.37
2019-03-30T22:51:37.913Z,30.02
2019-03-30T22:54:10.108Z,29.32
2019-03-30T22:56:41.884Z,27.25
2019-03-30T23:01:44.389Z,25.68
2019-03-30T23:04:16.404Z,27.45
2019-03-30T23:06:48.226Z,27.90
2019-03-30T23:11:51.145Z,28.65
2019-03-30T23:14:23.105Z,28.55
2019-03-30T23:16:55.345Z,28.52
2019-03-30T23:19:27.354Z,27.17
2019-03-30T23:21:59.636Z,27.32
2019-03-30T23:24:32.477Z,26.90
2019-03-30T23:27:04.330Z,29.37
2019-03-30T23:29:37.511Z,25.50
2019-03-30T23:32:09.691Z,28.02
2019-03-30T23:34:41.574Z,27.35
2019-03-30T23:39:44.775Z,25.23
2019-03-30T23:42:16.905Z,31.15
2019-03-30T23:44:48.907Z,24.23
2019-03-30T23:47:20.660Z,23.70
2019-03-30T23:52:23.193Z,27.48
2019-03-30T23:57:25.986Z,24.30
2019-03-30T23:59:57.788Z,26.30
